Meteo Giornale » Osservazioni meteo Cina » Changsha
ore: 01:00 - Osservazioni Meteo Changsha
Lat. 28° 14' N Lon. 112° 52' E Alt. metri s.l.m.
23 °C
Sereno
Temp. 24 Ore
22 °C
26 °C
Nord/NOvest
10.8 Km/h
Dew point 18 °C
Umidità 73 %
Visibilità 10 Km
Il sole sorge alle ore 06:06
Il sole tramonta alle ore 18:50
| Data e Ora | Cielo e Fenomeni | T °C | DP °C | Um. % | Pres. hPa | Vis. km | Vento km/h | |
|---|---|---|---|---|---|---|---|---|
| Oggi h: 01:00 | Sereno | 23 | 18 | 73 | 1008 | 10 | N/NO 10.8 | |
| Oggi h: 00:00 | Sereno | 23 | 18 | 73 | 1008 | 10 | N 18 | |
| Ieri h: 23:00 | Sereno | 23 | 19 | 78 | 1008 | 10 | N 25.2 | |
| Ieri h: 22:00 | Sereno | 23 | 21 | 88 | 1008 | 10 | N 21.6 | |
| Ieri h: 21:00 | Sereno | 23 | 20 | 83 | 1008 | 10 | N 21.6 | |
| Ieri h: 20:00 | Poco Nuvoloso | 23 | 20 | 83 | 1007 | 10 | N 21.6 | |
| Ieri h: 19:00 | Poco Nuvoloso | 23 | 20 | 83 | 1007 | 10 | N 21.6 | |
| Ieri h: 18:00 | Poco Nuvoloso | 23 | 20 | 83 | 1006 | 10 | N 28.8 | |
| Ieri h: 17:00 | Molto Nuvoloso | 24 | 21 | 83 | 1006 | 10 | N 28.8 | |
| Ieri h: 16:00 | Coperto | 24 | 21 | 83 | 1006 | 10 | N 32.4 | |
| Ieri h: 15:00 | Pioggia | 23 | 23 | 100 | 1006 | 8 | N 28.8 | |
| Ieri h: 14:00 | Pioggia Foschia | 22 | 22 | 100 | 1006 | 3 | N 21.6 | |
| Ieri h: 13:00 | Pioggia | 22 | 21 | 94 | 1007 | 10 | N 28.8 | |
| Ieri h: 12:00 | Pioggia | 23 | 21 | 88 | 1007 | 10 | N 36 | |
| Ieri h: 11:00 | Pioggia | 24 | 21 | 83 | 1007 | 10 | N 36 | |
| Ieri h: 10:00 | Pioggia | 24 | 23 | 94 | 1006 | 7 | N 32.4 | |
| Ieri h: 09:00 | Pioggia Foschia | 24 | 24 | 100 | 1006 | 3 | N 25.2 | |
| Ieri h: 08:00 | Pioggia | 24 | 24 | 100 | 1005 | 5 | N 25.2 | |
| Ieri h: 07:00 | Nuvoloso | 25 | 24 | 94 | 1005 | 10 | N 25.2 | |
| Ieri h: 06:00 | Pioggia | 25 | 24 | 94 | 1004 | 10 | N 25.2 | |
| Ieri h: 05:00 | Nuvoloso | 26 | 25 | 94 | 1003 | 10 | N 18 | |
| Ieri h: 04:00 | Poco Nuvoloso | 26 | 25 | 94 | 1003 | 10 | N 18 | |
| Ieri h: 03:00 | Poco Nuvoloso | 26 | 25 | 94 | 1003 | 10 | N 14.4 | |
| Ieri h: 02:00 | Nuvoloso | 26 | 25 | 94 | 1004 | 10 | N 10.8 | |



